Maersk Windhoek — 3FWJ3 — position and weather

sailwx.info

Track history (hours):
 
Tides and Currents Weather Stations Pressure Air Temp Water Temp Dewpoint Dewpoint Depression Visibility Wind Speed Wind Dir Waves Ship Positions

Maersk Windhoek

Last reported at 2015-Mar-04 22:10 UTC. Time now 2015-Mar-04 22:52 UTC.
Position N 39°23' W 000°16'.

Length 172 m; draft 6.4 m.

Type: Ship (hazmat cat C). MMSI: 370431000.

Date/timePositionNaut miles runAvg speedWind from/ knotsBaromVisibWave heightAir tempDewpointWater temp
2015-Mar-04 22:10N 39°23' W 000°16'0 0.1
2015-Mar-04 21:31N 39°23' W 000°16'0 0.0
2015-Mar-04 20:28N 39°23' W 000°16'0 0.0
2015-Mar-04 19:31N 39°23' W 000°16'0 0.1
2015-Mar-04 18:31N 39°23' W 000°17'0 0.0
2015-Mar-04 17:31N 39°23' W 000°17'0 0.0
2015-Mar-04 15:25N 39°23' W 000°17'0 0.0
2015-Mar-04 13:19N 39°23' W 000°17'0 0.0
2015-Mar-04 10:31N 39°23' W 000°17'0 0.0
2015-Mar-04 09:31N 39°23' W 000°17'0 0.0
2015-Mar-04 08:31N 39°23' W 000°17'0 0.0
2015-Mar-03 22:31N 39°23' W 000°17'0 0.0
2015-Mar-03 21:19N 39°23' W 000°17'0 0.0
2015-Mar-03 20:04N 39°23' W 000°17'0 0.0
2015-Mar-03 19:10N 39°23' W 000°17'0 0.0
2015-Mar-03 18:31N 39°23' W 000°17'0 0.0
2015-Mar-03 17:31N 39°23' W 000°17'0 0.0
2015-Mar-03 16:31N 39°23' W 000°17'0 0.0
2015-Mar-03 15:31N 39°23' W 000°17'0 0.0
2015-Mar-03 14:25N 39°23' W 000°17'0 0.0
2015-Mar-03 13:25N 39°23' W 000°17'0 0.0
2015-Mar-03 12:25N 39°23' W 000°17'0 0.0
2015-Mar-03 08:28N 39°23' W 000°17'0 0.0
2015-Mar-02 10:28N 39°23' W 000°16'0 0.0
2015-Mar-02 08:28N 39°23' W 000°16'0 0.0
2015-Mar-02 07:31N 39°23' W 000°16'0 0.0
2015-Mar-02 06:28N 39°23' W 000°16'0 0.0
2015-Mar-02 05:28N 39°23' W 000°16'0 0.0
2015-Mar-02 04:28N 39°23' W 000°16'0 0.0
2015-Mar-02 03:28N 39°23' W 000°16'0 0.0
2015-Mar-02 02:25N 39°23' W 000°16'0 0.0
2015-Mar-02 01:22N 39°23' W 000°16'0 0.1
2015-Mar-02 00:31N 39°23' W 000°16'0 0.0
2015-Mar-01 23:19N 39°23' W 000°16'0 0.0
2015-Mar-01 22:31N 39°23' W 000°16'0 0.0
2015-Mar-01 21:16N 39°23' W 000°16'0 0.0
2015-Mar-01 20:31N 39°23' W 000°16'0 0.1
2015-Mar-01 18:31N 39°23' W 000°17'0 0.0
2015-Mar-01 17:19N 39°23' W 000°17'0 0.0
2015-Mar-01 12:31N 39°23' W 000°16'0 0.0
2015-Mar-01 11:31N 39°23' W 000°16'0 0.0
2015-Mar-01 10:22N 39°23' W 000°16'0 0.0
2015-Mar-01 09:22N 39°23' W 000°16'0 0.0
2015-Mar-01 07:10N 39°23' W 000°16'0 0.0
2015-Mar-01 06:31N 39°23' W 000°16'1 0.9
2015-Mar-01 05:33N 39°23' W 000°15'4 4.1
2015-Mar-01 04:33N 39°26' W 000°19'0 0.4
2015-Mar-01 03:30N 39°26' W 000°19'0 0.0
2015-Mar-01 02:18N 39°26' W 000°19'0 0.0
2015-Mar-01 01:33N 39°26' W 000°19'0 0.0
2015-Mar-01 00:33N 39°26' W 000°19'0 0.0
2015-Feb-28 23:33N 39°26' W 000°19'0 0.0
2015-Feb-28 22:33N 39°26' W 000°19'0 0.0
2015-Feb-28 21:33N 39°26' W 000°19'0 0.0
2015-Feb-28 20:33N 39°26' W 000°19'0 0.0
2015-Feb-28 19:30N 39°26' W 000°19'0 0.0
2015-Feb-28 18:33N 39°26' W 000°19'0 0.0
2015-Feb-28 17:33N 39°26' W 000°19'0 0.0
2015-Feb-28 16:33N 39°26' W 000°19'0 0.0
2015-Feb-28 15:33N 39°26' W 000°19'0 0.0
2015-Feb-28 14:33N 39°26' W 000°19'0 0.0
2015-Feb-28 13:30N 39°26' W 000°19'0 0.0
2015-Feb-28 12:33N 39°26' W 000°19'0 0.0
2015-Feb-28 11:33N 39°26' W 000°19'0 0.0
2015-Feb-28 10:30N 39°26' W 000°19'0 0.0
2015-Feb-28 09:30N 39°26' W 000°19'0 0.0
2015-Feb-28 08:21N 39°26' W 000°19'0 0.0
2015-Feb-28 07:30N 39°26' W 000°19'2 2.5
2015-Feb-28 06:33N 39°25' W 000°16'7 3.6
2015-Feb-28 04:33N 39°22' W 000°08'1 0.5
2015-Feb-28 03:30N 39°22' W 000°07'1 0.7
2015-Feb-28 02:22N 39°22' W 000°07'6914.4
2015-Feb-27 21:33N 38°42' E 001°06'1716.7
2015-Feb-27 20:32N 38°33' E 001°24'  
Track history (hours):
 
Tides and Currents Weather Stations Pressure Air Temp Water Temp Dewpoint Dewpoint Depression Visibility Wind Speed Wind Dir Waves Ship Positions

Maersk Windhoek

Last reported at 2015-Mar-04 22:10 UTC. Time now 2015-Mar-04 22:52 UTC.
Position N 39°23' W 000°16'.

Length 172 m; draft 6.4 m.

Type: Ship (hazmat cat C). MMSI: 370431000.

Date/timePositionNaut miles runAvg speedWind from/ knotsBaromVisibWave heightAir tempDewpointWater temp
2015-Mar-04 22:10N 39°23' W 000°16'0 0.1
2015-Mar-04 21:31N 39°23' W 000°16'0 0.0
2015-Mar-04 20:28N 39°23' W 000°16'0 0.0
2015-Mar-04 19:31N 39°23' W 000°16'0 0.1
2015-Mar-04 18:31N 39°23' W 000°17'0 0.0
2015-Mar-04 17:31N 39°23' W 000°17'0 0.0
2015-Mar-04 15:25N 39°23' W 000°17'0 0.0
2015-Mar-04 13:19N 39°23' W 000°17'0 0.0
2015-Mar-04 10:31N 39°23' W 000°17'0 0.0
2015-Mar-04 09:31N 39°23' W 000°17'0 0.0
2015-Mar-04 08:31N 39°23' W 000°17'0 0.0
2015-Mar-03 22:31N 39°23' W 000°17'0 0.0
2015-Mar-03 21:19N 39°23' W 000°17'0 0.0
2015-Mar-03 20:04N 39°23' W 000°17'0 0.0
2015-Mar-03 19:10N 39°23' W 000°17'0 0.0
2015-Mar-03 18:31N 39°23' W 000°17'0 0.0
2015-Mar-03 17:31N 39°23' W 000°17'0 0.0
2015-Mar-03 16:31N 39°23' W 000°17'0 0.0
2015-Mar-03 15:31N 39°23' W 000°17'0 0.0
2015-Mar-03 14:25N 39°23' W 000°17'0 0.0
2015-Mar-03 13:25N 39°23' W 000°17'0 0.0
2015-Mar-03 12:25N 39°23' W 000°17'0 0.0
2015-Mar-03 08:28N 39°23' W 000°17'0 0.0
2015-Mar-02 10:28N 39°23' W 000°16'0 0.0
2015-Mar-02 08:28N 39°23' W 000°16'0 0.0
2015-Mar-02 07:31N 39°23' W 000°16'0 0.0
2015-Mar-02 06:28N 39°23' W 000°16'0 0.0
2015-Mar-02 05:28N 39°23' W 000°16'0 0.0
2015-Mar-02 04:28N 39°23' W 000°16'0 0.0
2015-Mar-02 03:28N 39°23' W 000°16'0 0.0
2015-Mar-02 02:25N 39°23' W 000°16'0 0.0
2015-Mar-02 01:22N 39°23' W 000°16'0 0.1
2015-Mar-02 00:31N 39°23' W 000°16'0 0.0
2015-Mar-01 23:19N 39°23' W 000°16'0 0.0
2015-Mar-01 22:31N 39°23' W 000°16'0 0.0
2015-Mar-01 21:16N 39°23' W 000°16'0 0.0
2015-Mar-01 20:31N 39°23' W 000°16'0 0.1
2015-Mar-01 18:31N 39°23' W 000°17'0 0.0
2015-Mar-01 17:19N 39°23' W 000°17'0 0.0
2015-Mar-01 12:31N 39°23' W 000°16'0 0.0
2015-Mar-01 11:31N 39°23' W 000°16'0 0.0
2015-Mar-01 10:22N 39°23' W 000°16'0 0.0
2015-Mar-01 09:22N 39°23' W 000°16'0 0.0
2015-Mar-01 07:10N 39°23' W 000°16'0 0.0
2015-Mar-01 06:31N 39°23' W 000°16'1 0.9
2015-Mar-01 05:33N 39°23' W 000°15'4 4.1
2015-Mar-01 04:33N 39°26' W 000°19'0 0.4
2015-Mar-01 03:30N 39°26' W 000°19'0 0.0
2015-Mar-01 02:18N 39°26' W 000°19'0 0.0
2015-Mar-01 01:33N 39°26' W 000°19'0 0.0
2015-Mar-01 00:33N 39°26' W 000°19'0 0.0
2015-Feb-28 23:33N 39°26' W 000°19'0 0.0
2015-Feb-28 22:33N 39°26' W 000°19'0 0.0
2015-Feb-28 21:33N 39°26' W 000°19'0 0.0
2015-Feb-28 20:33N 39°26' W 000°19'0 0.0
2015-Feb-28 19:30N 39°26' W 000°19'0 0.0
2015-Feb-28 18:33N 39°26' W 000°19'0 0.0
2015-Feb-28 17:33N 39°26' W 000°19'0 0.0
2015-Feb-28 16:33N 39°26' W 000°19'0 0.0
2015-Feb-28 15:33N 39°26' W 000°19'0 0.0
2015-Feb-28 14:33N 39°26' W 000°19'0 0.0
2015-Feb-28 13:30N 39°26' W 000°19'0 0.0
2015-Feb-28 12:33N 39°26' W 000°19'0 0.0
2015-Feb-28 11:33N 39°26' W 000°19'0 0.0
2015-Feb-28 10:30N 39°26' W 000°19'0 0.0
2015-Feb-28 09:30N 39°26' W 000°19'0 0.0
2015-Feb-28 08:21N 39°26' W 000°19'0 0.0
2015-Feb-28 07:30N 39°26' W 000°19'2 2.5
2015-Feb-28 06:33N 39°25' W 000°16'7 3.6
2015-Feb-28 04:33N 39°22' W 000°08'1 0.5
2015-Feb-28 03:30N 39°22' W 000°07'1 0.7
2015-Feb-28 02:22N 39°22' W 000°07'6914.4
2015-Feb-27 21:33N 38°42' E 001°06'1716.7
2015-Feb-27 20:32N 38°33' E 001°24'  

Dump ship's entire track history